Dai25myoujinmaru — JL6201 — position and weather

sailwx.info

Track history (hours):
 
Tides and Currents Weather Stations Pressure Air Temp Water Temp Dewpoint Dewpoint Depression Visibility Wind Speed Wind Dir Waves Ship Positions

Dai25myoujinmaru

Last reported at 2014-Oct-30 09:17 UTC. Time now 2014-Oct-30 18:18 UTC.
Position N 35°13' E 139°46'.

Length 88 m; draft 5.6 m.

Type: Tanker. MMSI: 431500272.

Date/timePositionNaut miles runAvg speedWind from/ knotsBaromVisibWave heightAir tempDewpointWater temp
2014-Oct-30 09:17N 35°13' E 139°46'911.9
2014-Oct-30 08:34N 35°21' E 139°42'1211.6
2014-Oct-30 07:34N 35°30' E 139°52'8 2.0
2014-Oct-30 03:31N 35°30' E 140°02'7 2.2
2014-Oct-30 00:28N 35°29' E 139°54'7 6.7
2014-Oct-29 23:29N 35°31' E 139°46'0 0.0
2014-Oct-29 22:33N 35°31' E 139°46'0 0.0
2014-Oct-29 21:33N 35°31' E 139°46'2 2.2
2014-Oct-29 20:34N 35°30' E 139°44'4 4.4
2014-Oct-29 19:33N 35°27' E 139°40'0 0.0
2014-Oct-29 18:31N 35°27' E 139°40'0 0.0
2014-Oct-29 17:31N 35°27' E 139°40'0 0.0
2014-Oct-29 16:31N 35°27' E 139°40'0 0.0
2014-Oct-29 15:31N 35°27' E 139°40'0 0.0
2014-Oct-29 14:31N 35°27' E 139°40'0 0.0
2014-Oct-29 13:31N 35°27' E 139°40'0 0.0
2014-Oct-29 12:31N 35°27' E 139°40'0 0.0
2014-Oct-29 11:31N 35°27' E 139°40'0 0.0
2014-Oct-29 10:31N 35°27' E 139°40'0 0.0
2014-Oct-29 09:31N 35°27' E 139°40'0 0.0
2014-Oct-29 08:31N 35°27' E 139°40'0 0.0
2014-Oct-29 07:31N 35°27' E 139°40'0 0.0
2014-Oct-29 06:31N 35°27' E 139°40'0 0.0
2014-Oct-29 05:34N 35°27' E 139°40'1 1.0
2014-Oct-29 04:34N 35°27' E 139°41'5 4.5
2014-Oct-29 03:34N 35°23' E 139°44'0 0.0
2014-Oct-29 02:33N 35°23' E 139°44'0 0.1
2014-Oct-29 01:33N 35°23' E 139°44'0 0.0
2014-Oct-29 00:33N 35°23' E 139°44'0 0.0
2014-Oct-28 23:24N 35°23' E 139°44'0 0.1
2014-Oct-28 22:30N 35°23' E 139°45'0 0.0
2014-Oct-28 21:33N 35°23' E 139°45'0 0.0
2014-Oct-28 20:33N 35°23' E 139°45'0 0.0
2014-Oct-28 19:33N 35°23' E 139°45'0 0.0
2014-Oct-28 18:33N 35°23' E 139°45'0 0.0
2014-Oct-28 17:33N 35°23' E 139°44'0 0.0
2014-Oct-28 16:33N 35°23' E 139°44'0 0.0
2014-Oct-28 15:33N 35°23' E 139°44'0 0.0
2014-Oct-28 14:33N 35°23' E 139°44'0 0.0
2014-Oct-28 13:30N 35°23' E 139°44'0 0.0
2014-Oct-28 12:30N 35°23' E 139°44'0 0.0
2014-Oct-28 11:33N 35°23' E 139°44'0 0.0
2014-Oct-28 10:27N 35°23' E 139°44'0 0.0
2014-Oct-28 09:30N 35°23' E 139°44'0 0.1
2014-Oct-28 08:33N 35°23' E 139°44'0 0.0
2014-Oct-28 07:30N 35°23' E 139°44'0 0.0
2014-Oct-28 06:33N 35°23' E 139°44'0 0.0
2014-Oct-28 05:33N 35°23' E 139°44'0 0.0
2014-Oct-28 04:33N 35°23' E 139°44'0 0.0
2014-Oct-28 03:33N 35°23' E 139°44'0 0.1
2014-Oct-28 02:33N 35°23' E 139°44'5 4.5
2014-Oct-28 01:32N 35°19' E 139°44'1311.6
2014-Oct-28 00:27N 35°06' E 139°45'  
2014-Oct-25 07:32N 35°09' E 139°46'1211.9
2014-Oct-25 06:33N 35°21' E 139°42'1111.4
2014-Oct-25 05:33N 35°29' E 139°51'9 2.1
2014-Oct-25 01:33N 35°30' E 140°02'3 0.5
2014-Oct-24 19:03N 35°31' E 139°59'5 0.8
2014-Oct-24 13:03N 35°29' E 139°54'612.7
2014-Oct-24 12:33N 35°25' E 139°47'1111.2
2014-Oct-24 11:33N 35°14' E 139°47'  
2014-Oct-21 14:25N 33°48' E 130°08'  
Track history (hours):
 
Tides and Currents Weather Stations Pressure Air Temp Water Temp Dewpoint Dewpoint Depression Visibility Wind Speed Wind Dir Waves Ship Positions

Dai25myoujinmaru

Last reported at 2014-Oct-30 09:17 UTC. Time now 2014-Oct-30 18:18 UTC.
Position N 35°13' E 139°46'.

Length 88 m; draft 5.6 m.

Type: Tanker. MMSI: 431500272.

Date/timePositionNaut miles runAvg speedWind from/ knotsBaromVisibWave heightAir tempDewpointWater temp
2014-Oct-30 09:17N 35°13' E 139°46'911.9
2014-Oct-30 08:34N 35°21' E 139°42'1211.6
2014-Oct-30 07:34N 35°30' E 139°52'8 2.0
2014-Oct-30 03:31N 35°30' E 140°02'7 2.2
2014-Oct-30 00:28N 35°29' E 139°54'7 6.7
2014-Oct-29 23:29N 35°31' E 139°46'0 0.0
2014-Oct-29 22:33N 35°31' E 139°46'0 0.0
2014-Oct-29 21:33N 35°31' E 139°46'2 2.2
2014-Oct-29 20:34N 35°30' E 139°44'4 4.4
2014-Oct-29 19:33N 35°27' E 139°40'0 0.0
2014-Oct-29 18:31N 35°27' E 139°40'0 0.0
2014-Oct-29 17:31N 35°27' E 139°40'0 0.0
2014-Oct-29 16:31N 35°27' E 139°40'0 0.0
2014-Oct-29 15:31N 35°27' E 139°40'0 0.0
2014-Oct-29 14:31N 35°27' E 139°40'0 0.0
2014-Oct-29 13:31N 35°27' E 139°40'0 0.0
2014-Oct-29 12:31N 35°27' E 139°40'0 0.0
2014-Oct-29 11:31N 35°27' E 139°40'0 0.0
2014-Oct-29 10:31N 35°27' E 139°40'0 0.0
2014-Oct-29 09:31N 35°27' E 139°40'0 0.0
2014-Oct-29 08:31N 35°27' E 139°40'0 0.0
2014-Oct-29 07:31N 35°27' E 139°40'0 0.0
2014-Oct-29 06:31N 35°27' E 139°40'0 0.0
2014-Oct-29 05:34N 35°27' E 139°40'1 1.0
2014-Oct-29 04:34N 35°27' E 139°41'5 4.5
2014-Oct-29 03:34N 35°23' E 139°44'0 0.0
2014-Oct-29 02:33N 35°23' E 139°44'0 0.1
2014-Oct-29 01:33N 35°23' E 139°44'0 0.0
2014-Oct-29 00:33N 35°23' E 139°44'0 0.0
2014-Oct-28 23:24N 35°23' E 139°44'0 0.1
2014-Oct-28 22:30N 35°23' E 139°45'0 0.0
2014-Oct-28 21:33N 35°23' E 139°45'0 0.0
2014-Oct-28 20:33N 35°23' E 139°45'0 0.0
2014-Oct-28 19:33N 35°23' E 139°45'0 0.0
2014-Oct-28 18:33N 35°23' E 139°45'0 0.0
2014-Oct-28 17:33N 35°23' E 139°44'0 0.0
2014-Oct-28 16:33N 35°23' E 139°44'0 0.0
2014-Oct-28 15:33N 35°23' E 139°44'0 0.0
2014-Oct-28 14:33N 35°23' E 139°44'0 0.0
2014-Oct-28 13:30N 35°23' E 139°44'0 0.0
2014-Oct-28 12:30N 35°23' E 139°44'0 0.0
2014-Oct-28 11:33N 35°23' E 139°44'0 0.0
2014-Oct-28 10:27N 35°23' E 139°44'0 0.0
2014-Oct-28 09:30N 35°23' E 139°44'0 0.1
2014-Oct-28 08:33N 35°23' E 139°44'0 0.0
2014-Oct-28 07:30N 35°23' E 139°44'0 0.0
2014-Oct-28 06:33N 35°23' E 139°44'0 0.0
2014-Oct-28 05:33N 35°23' E 139°44'0 0.0
2014-Oct-28 04:33N 35°23' E 139°44'0 0.0
2014-Oct-28 03:33N 35°23' E 139°44'0 0.1
2014-Oct-28 02:33N 35°23' E 139°44'5 4.5
2014-Oct-28 01:32N 35°19' E 139°44'1311.6
2014-Oct-28 00:27N 35°06' E 139°45'  
2014-Oct-25 07:32N 35°09' E 139°46'1211.9
2014-Oct-25 06:33N 35°21' E 139°42'1111.4
2014-Oct-25 05:33N 35°29' E 139°51'9 2.1
2014-Oct-25 01:33N 35°30' E 140°02'3 0.5
2014-Oct-24 19:03N 35°31' E 139°59'5 0.8
2014-Oct-24 13:03N 35°29' E 139°54'612.7
2014-Oct-24 12:33N 35°25' E 139°47'1111.2
2014-Oct-24 11:33N 35°14' E 139°47'  
2014-Oct-21 14:25N 33°48' E 130°08'  

Dump ship's entire track history